sensor_id;sensor_type;location;lat;lon;timestamp;P1;durP1;ratioP1;P2;durP2;ratioP2
982;SDS011;480;48.124;11.578;2023-02-28T00:01:52;2.50;;;2.30;;
982;SDS011;480;48.124;11.578;2023-02-28T00:04:21;3.47;;;2.13;;
982;SDS011;480;48.124;11.578;2023-02-28T00:06:49;3.17;;;2.20;;
982;SDS011;480;48.124;11.578;2023-02-28T00:09:19;2.57;;;2.33;;
982;SDS011;480;48.124;11.578;2023-02-28T00:11:47;3.63;;;2.77;;
982;SDS011;480;48.124;11.578;2023-02-28T00:14:18;2.80;;;2.53;;
982;SDS011;480;48.124;11.578;2023-02-28T00:19:43;2.57;;;2.37;;
982;SDS011;480;48.124;11.578;2023-02-28T00:22:16;2.80;;;2.50;;
982;SDS011;480;48.124;11.578;2023-02-28T00:24:57;6.07;;;3.10;;
982;SDS011;480;48.124;11.578;2023-02-28T00:27:29;4.40;;;2.53;;
982;SDS011;480;48.124;11.578;2023-02-28T00:29:56;4.23;;;2.60;;
982;SDS011;480;48.124;11.578;2023-02-28T00:32:27;3.13;;;2.90;;
982;SDS011;480;48.124;11.578;2023-02-28T00:34:57;3.53;;;3.23;;
982;SDS011;480;48.124;11.578;2023-02-28T00:37:26;4.33;;;2.63;;
982;SDS011;480;48.124;11.578;2023-02-28T00:39:55;2.53;;;2.37;;
982;SDS011;480;48.124;11.578;2023-02-28T00:42:36;2.30;;;2.10;;
982;SDS011;480;48.124;11.578;2023-02-28T00:45:04;2.53;;;2.30;;
982;SDS011;480;48.124;11.578;2023-02-28T00:47:34;3.40;;;3.13;;
982;SDS011;480;48.124;11.578;2023-02-28T00:50:04;1.80;;;1.70;;
982;SDS011;480;48.124;11.578;2023-02-28T00:57:37;4.47;;;2.70;;
982;SDS011;480;48.124;11.578;2023-02-28T01:00:06;2.50;;;2.30;;
982;SDS011;480;48.124;11.578;2023-02-28T01:02:35;2.27;;;2.07;;
982;SDS011;480;48.124;11.578;2023-02-28T01:05:04;3.47;;;2.13;;
982;SDS011;480;48.124;11.578;2023-02-28T01:07:32;2.93;;;2.50;;
982;SDS011;480;48.124;11.578;2023-02-28T01:09:59;3.80;;;3.50;;
982;SDS011;480;48.124;11.578;2023-02-28T01:12:26;2.83;;;2.50;;
982;SDS011;480;48.124;11.578;2023-02-28T01:14:54;1.60;;;1.33;;
982;SDS011;480;48.124;11.578;2023-02-28T01:17:21;2.10;;;1.70;;
982;SDS011;480;48.124;11.578;2023-02-28T01:19:49;1.70;;;1.60;;
982;SDS011;480;48.124;11.578;2023-02-28T01:22:22;1.93;;;1.83;;
982;SDS011;480;48.124;11.578;2023-02-28T01:24:49;2.13;;;2.03;;
982;SDS011;480;48.124;11.578;2023-02-28T01:27:19;4.70;;;2.23;;
982;SDS011;480;48.124;11.578;2023-02-28T01:29:47;3.63;;;3.30;;
982;SDS011;480;48.124;11.578;2023-02-28T01:32:15;1.97;;;1.87;;
982;SDS011;480;48.124;11.578;2023-02-28T01:34:42;3.90;;;2.80;;
982;SDS011;480;48.124;11.578;2023-02-28T01:37:09;2.20;;;1.90;;
982;SDS011;480;48.124;11.578;2023-02-28T01:39:38;2.27;;;2.07;;
982;SDS011;480;48.124;11.578;2023-02-28T01:42:08;2.33;;;2.13;;
982;SDS011;480;48.124;11.578;2023-02-28T01:47:26;3.67;;;2.97;;
982;SDS011;480;48.124;11.578;2023-02-28T01:49:55;4.60;;;2.47;;
982;SDS011;480;48.124;11.578;2023-02-28T01:52:24;3.10;;;2.53;;
982;SDS011;480;48.124;11.578;2023-02-28T01:54:54;2.57;;;2.37;;
982;SDS011;480;48.124;11.578;2023-02-28T01:57:25;2.13;;;2.03;;
982;SDS011;480;48.124;11.578;2023-02-28T02:00:03;1.10;;;1.10;;
982;SDS011;480;48.124;11.578;2023-02-28T02:02:34;2.50;;;2.30;;
982;SDS011;480;48.124;11.578;2023-02-28T02:05:05;2.07;;;1.97;;
982;SDS011;480;48.124;11.578;2023-02-28T02:07:35;2.33;;;2.23;;
982;SDS011;480;48.124;11.578;2023-02-28T02:10:09;3.00;;;2.80;;
982;SDS011;480;48.124;11.578;2023-02-28T02:15:36;5.00;;;2.53;;
982;SDS011;480;48.124;11.578;2023-02-28T02:18:09;2.23;;;2.10;;
982;SDS011;480;48.124;11.578;2023-02-28T02:20:57;3.17;;;2.53;;
982;SDS011;480;48.124;11.578;2023-02-28T02:24:16;1.40;;;1.30;;
982;SDS011;480;48.124;11.578;2023-02-28T02:30:05;3.37;;;2.60;;
982;SDS011;480;48.124;11.578;2023-02-28T02:33:05;2.20;;;2.10;;
982;SDS011;480;48.124;11.578;2023-02-28T02:35:56;2.30;;;2.10;;
982;SDS011;480;48.124;11.578;2023-02-28T02:38:31;2.83;;;2.73;;
982;SDS011;480;48.124;11.578;2023-02-28T02:41:04;5.70;;;2.87;;
982;SDS011;480;48.124;11.578;2023-02-28T02:43:39;5.43;;;3.80;;
982;SDS011;480;48.124;11.578;2023-02-28T02:46:12;2.47;;;2.37;;
982;SDS011;480;48.124;11.578;2023-02-28T02:48:44;3.47;;;2.40;;
982;SDS011;480;48.124;11.578;2023-02-28T02:51:15;2.87;;;2.77;;
982;SDS011;480;48.124;11.578;2023-02-28T02:53:45;2.83;;;2.63;;
982;SDS011;480;48.124;11.578;2023-02-28T02:56:17;1.60;;;1.50;;
982;SDS011;480;48.124;11.578;2023-02-28T02:58:46;3.33;;;2.30;;
982;SDS011;480;48.124;11.578;2023-02-28T03:01:16;2.10;;;1.70;;
982;SDS011;480;48.124;11.578;2023-02-28T03:03:54;4.00;;;2.90;;
982;SDS011;480;48.124;11.578;2023-02-28T03:06:24;2.73;;;2.53;;
982;SDS011;480;48.124;11.578;2023-02-28T03:08:52;2.57;;;2.37;;
982;SDS011;480;48.124;11.578;2023-02-28T03:11:19;2.93;;;2.60;;
982;SDS011;480;48.124;11.578;2023-02-28T03:13:52;2.50;;;2.40;;
982;SDS011;480;48.124;11.578;2023-02-28T03:16:32;3.13;;;2.50;;
982;SDS011;480;48.124;11.578;2023-02-28T03:19:04;2.60;;;2.40;;
982;SDS011;480;48.124;11.578;2023-02-28T03:21:47;2.80;;;2.60;;
982;SDS011;480;48.124;11.578;2023-02-28T03:24:25;3.60;;;3.40;;
982;SDS011;480;48.124;11.578;2023-02-28T03:27:02;2.30;;;2.10;;
982;SDS011;480;48.124;11.578;2023-02-28T03:29:34;2.70;;;2.50;;
982;SDS011;480;48.124;11.578;2023-02-28T03:32:05;2.00;;;1.80;;
982;SDS011;480;48.124;11.578;2023-02-28T03:34:39;2.50;;;2.40;;
982;SDS011;480;48.124;11.578;2023-02-28T03:37:16;9.37;;;4.57;;
982;SDS011;480;48.124;11.578;2023-02-28T03:39:49;3.63;;;3.33;;
982;SDS011;480;48.124;11.578;2023-02-28T03:42:22;2.70;;;2.47;;
982;SDS011;480;48.124;11.578;2023-02-28T03:44:53;2.73;;;2.53;;
982;SDS011;480;48.124;11.578;2023-02-28T03:47:24;2.70;;;2.27;;
982;SDS011;480;48.124;11.578;2023-02-28T03:49:56;2.70;;;2.43;;
982;SDS011;480;48.124;11.578;2023-02-28T03:52:33;3.03;;;2.73;;
982;SDS011;480;48.124;11.578;2023-02-28T03:55:03;3.43;;;2.90;;
982;SDS011;480;48.124;11.578;2023-02-28T03:57:36;4.10;;;2.57;;
982;SDS011;480;48.124;11.578;2023-02-28T04:00:07;2.57;;;2.37;;
982;SDS011;480;48.124;11.578;2023-02-28T04:02:38;5.87;;;3.43;;
982;SDS011;480;48.124;11.578;2023-02-28T04:05:06;5.00;;;3.80;;
982;SDS011;480;48.124;11.578;2023-02-28T04:07:35;2.50;;;2.30;;
982;SDS011;480;48.124;11.578;2023-02-28T04:10:03;2.40;;;2.20;;
982;SDS011;480;48.124;11.578;2023-02-28T04:12:31;2.60;;;2.40;;
982;SDS011;480;48.124;11.578;2023-02-28T04:14:58;3.27;;;2.93;;
982;SDS011;480;48.124;11.578;2023-02-28T04:17:25;5.17;;;4.67;;
982;SDS011;480;48.124;11.578;2023-02-28T04:19:52;3.50;;;3.27;;
982;SDS011;480;48.124;11.578;2023-02-28T04:22:21;5.37;;;4.77;;
982;SDS011;480;48.124;11.578;2023-02-28T04:24:52;3.07;;;2.73;;
982;SDS011;480;48.124;11.578;2023-02-28T04:27:19;5.37;;;2.93;;
982;SDS011;480;48.124;11.578;2023-02-28T04:29:46;3.77;;;2.50;;
982;SDS011;480;48.124;11.578;2023-02-28T04:32:13;5.50;;;4.10;;
982;SDS011;480;48.124;11.578;2023-02-28T04:34:40;4.00;;;3.70;;
982;SDS011;480;48.124;11.578;2023-02-28T04:37:08;3.53;;;2.43;;
982;SDS011;480;48.124;11.578;2023-02-28T04:39:35;4.80;;;3.03;;
982;SDS011;480;48.124;11.578;2023-02-28T04:42:04;2.93;;;2.80;;
982;SDS011;480;48.124;11.578;2023-02-28T04:44:31;5.47;;;4.07;;
982;SDS011;480;48.124;11.578;2023-02-28T04:46:58;3.30;;;3.00;;
982;SDS011;480;48.124;11.578;2023-02-28T04:49:26;5.43;;;3.50;;
982;SDS011;480;48.124;11.578;2023-02-28T04:51:53;3.83;;;3.47;;
982;SDS011;480;48.124;11.578;2023-02-28T04:54:20;3.93;;;3.53;;
982;SDS011;480;48.124;11.578;2023-02-28T04:56:47;5.33;;;3.13;;
982;SDS011;480;48.124;11.578;2023-02-28T04:59:16;5.50;;;5.10;;
982;SDS011;480;48.124;11.578;2023-02-28T05:01:45;5.37;;;4.27;;
982;SDS011;480;48.124;11.578;2023-02-28T05:04:13;4.80;;;4.13;;
982;SDS011;480;48.124;11.578;2023-02-28T05:06:41;4.80;;;4.47;;
982;SDS011;480;48.124;11.578;2023-02-28T05:09:10;4.67;;;4.00;;
982;SDS011;480;48.124;11.578;2023-02-28T05:11:38;4.40;;;3.70;;
982;SDS011;480;48.124;11.578;2023-02-28T05:14:09;5.43;;;3.60;;
982;SDS011;480;48.124;11.578;2023-02-28T05:16:40;4.60;;;3.90;;
982;SDS011;480;48.124;11.578;2023-02-28T05:19:07;7.80;;;4.53;;
982;SDS011;480;48.124;11.578;2023-02-28T05:21:36;9.07;;;5.00;;
982;SDS011;480;48.124;11.578;2023-02-28T05:24:06;3.90;;;3.60;;
982;SDS011;480;48.124;11.578;2023-02-28T05:26:35;7.43;;;5.53;;
982;SDS011;480;48.124;11.578;2023-02-28T05:29:08;6.33;;;4.60;;
982;SDS011;480;48.124;11.578;2023-02-28T05:31:35;4.57;;;4.17;;
982;SDS011;480;48.124;11.578;2023-02-28T05:34:04;5.13;;;4.30;;
982;SDS011;480;48.124;11.578;2023-02-28T05:36:32;3.93;;;3.60;;
982;SDS011;480;48.124;11.578;2023-02-28T05:38:59;8.20;;;5.10;;
982;SDS011;480;48.124;11.578;2023-02-28T05:41:27;5.57;;;3.47;;
982;SDS011;480;48.124;11.578;2023-02-28T05:43:54;3.83;;;3.10;;
982;SDS011;480;48.124;11.578;2023-02-28T05:46:21;10.30;;;4.90;;
982;SDS011;480;48.124;11.578;2023-02-28T05:48:48;6.33;;;5.73;;
982;SDS011;480;48.124;11.578;2023-02-28T05:51:18;9.40;;;6.03;;
982;SDS011;480;48.124;11.578;2023-02-28T05:53:46;9.20;;;6.03;;
982;SDS011;480;48.124;11.578;2023-02-28T05:56:14;8.30;;;5.80;;
982;SDS011;480;48.124;11.578;2023-02-28T05:58:44;6.90;;;5.50;;
982;SDS011;480;48.124;11.578;2023-02-28T06:01:22;9.97;;;8.27;;
982;SDS011;480;48.124;11.578;2023-02-28T06:03:51;6.87;;;5.80;;
982;SDS011;480;48.124;11.578;2023-02-28T06:06:20;6.37;;;5.77;;
982;SDS011;480;48.124;11.578;2023-02-28T06:08:47;8.40;;;5.10;;
982;SDS011;480;48.124;11.578;2023-02-28T06:11:14;6.77;;;6.13;;
982;SDS011;480;48.124;11.578;2023-02-28T06:13:41;9.83;;;6.33;;
982;SDS011;480;48.124;11.578;2023-02-28T06:16:09;8.80;;;7.23;;
982;SDS011;480;48.124;11.578;2023-02-28T06:18:37;7.17;;;6.50;;
982;SDS011;480;48.124;11.578;2023-02-28T06:21:07;10.13;;;8.10;;
982;SDS011;480;48.124;11.578;2023-02-28T06:23:38;17.60;;;8.57;;
982;SDS011;480;48.124;11.578;2023-02-28T06:26:05;15.97;;;11.77;;
982;SDS011;480;48.124;11.578;2023-02-28T06:28:35;11.20;;;8.13;;
982;SDS011;480;48.124;11.578;2023-02-28T06:31:17;12.50;;;9.70;;
982;SDS011;480;48.124;11.578;2023-02-28T06:34:16;9.30;;;6.17;;
982;SDS011;480;48.124;11.578;2023-02-28T06:37:02;11.13;;;7.70;;
982;SDS011;480;48.124;11.578;2023-02-28T06:39:32;13.57;;;9.00;;
982;SDS011;480;48.124;11.578;2023-02-28T06:41:59;8.90;;;7.73;;
982;SDS011;480;48.124;11.578;2023-02-28T06:44:27;9.30;;;8.37;;
982;SDS011;480;48.124;11.578;2023-02-28T06:47:00;13.90;;;6.80;;
982;SDS011;480;48.124;11.578;2023-02-28T06:49:31;9.77;;;6.70;;
982;SDS011;480;48.124;11.578;2023-02-28T06:51:59;13.13;;;11.77;;
982;SDS011;480;48.124;11.578;2023-02-28T07:00:40;8.97;;;8.03;;
982;SDS011;480;48.124;11.578;2023-02-28T07:03:09;9.37;;;7.80;;
982;SDS011;480;48.124;11.578;2023-02-28T07:06:05;13.00;;;9.53;;
982;SDS011;480;48.124;11.578;2023-02-28T07:08:43;12.10;;;7.60;;
982;SDS011;480;48.124;11.578;2023-02-28T07:11:11;12.50;;;10.30;;
982;SDS011;480;48.124;11.578;2023-02-28T07:13:40;10.83;;;7.50;;
982;SDS011;480;48.124;11.578;2023-02-28T07:16:12;11.53;;;10.47;;
982;SDS011;480;48.124;11.578;2023-02-28T07:18:40;10.17;;;9.07;;
982;SDS011;480;48.124;11.578;2023-02-28T07:21:08;6.27;;;5.77;;
982;SDS011;480;48.124;11.578;2023-02-28T07:23:39;13.70;;;9.47;;
982;SDS011;480;48.124;11.578;2023-02-28T07:26:19;14.20;;;8.60;;
982;SDS011;480;48.124;11.578;2023-02-28T07:28:48;10.10;;;7.00;;
982;SDS011;480;48.124;11.578;2023-02-28T07:31:16;18.73;;;11.47;;
982;SDS011;480;48.124;11.578;2023-02-28T07:33:47;9.67;;;8.50;;
982;SDS011;480;48.124;11.578;2023-02-28T07:36:16;9.90;;;7.73;;
982;SDS011;480;48.124;11.578;2023-02-28T07:38:52;12.33;;;10.37;;
982;SDS011;480;48.124;11.578;2023-02-28T07:41:26;9.57;;;7.80;;
982;SDS011;480;48.124;11.578;2023-02-28T07:44:47;10.33;;;7.73;;
982;SDS011;480;48.124;11.578;2023-02-28T07:47:18;11.00;;;9.90;;
982;SDS011;480;48.124;11.578;2023-02-28T07:49:59;12.10;;;10.03;;
982;SDS011;480;48.124;11.578;2023-02-28T07:52:29;15.17;;;10.23;;
982;SDS011;480;48.124;11.578;2023-02-28T07:54:57;7.57;;;6.70;;
982;SDS011;480;48.124;11.578;2023-02-28T07:57:25;9.70;;;8.70;;
982;SDS011;480;48.124;11.578;2023-02-28T07:59:54;8.70;;;6.57;;
982;SDS011;480;48.124;11.578;2023-02-28T08:02:22;8.27;;;7.23;;
982;SDS011;480;48.124;11.578;2023-02-28T08:04:55;14.50;;;9.17;;
982;SDS011;480;48.124;11.578;2023-02-28T08:07:23;7.13;;;5.07;;
982;SDS011;480;48.124;11.578;2023-02-28T08:09:53;9.27;;;5.20;;
982;SDS011;480;48.124;11.578;2023-02-28T08:12:20;6.83;;;6.00;;
982;SDS011;480;48.124;11.578;2023-02-28T08:14:49;8.13;;;7.37;;
982;SDS011;480;48.124;11.578;2023-02-28T08:17:17;7.97;;;6.27;;
982;SDS011;480;48.124;11.578;2023-02-28T08:19:45;9.50;;;8.57;;
982;SDS011;480;48.124;11.578;2023-02-28T08:22:15;13.40;;;8.00;;
982;SDS011;480;48.124;11.578;2023-02-28T08:24:42;11.37;;;7.90;;
982;SDS011;480;48.124;11.578;2023-02-28T08:27:10;12.60;;;6.30;;
982;SDS011;480;48.124;11.578;2023-02-28T08:29:38;6.10;;;5.50;;
982;SDS011;480;48.124;11.578;2023-02-28T08:32:05;8.70;;;5.80;;
982;SDS011;480;48.124;11.578;2023-02-28T08:34:35;9.53;;;8.23;;
982;SDS011;480;48.124;11.578;2023-02-28T08:37:02;15.67;;;9.50;;
982;SDS011;480;48.124;11.578;2023-02-28T08:39:29;9.40;;;7.67;;
982;SDS011;480;48.124;11.578;2023-02-28T08:41:57;8.47;;;7.33;;
982;SDS011;480;48.124;11.578;2023-02-28T08:44:24;10.50;;;8.77;;
982;SDS011;480;48.124;11.578;2023-02-28T08:46:52;12.30;;;7.70;;
982;SDS011;480;48.124;11.578;2023-02-28T08:49:19;8.93;;;7.47;;
982;SDS011;480;48.124;11.578;2023-02-28T08:51:48;12.87;;;9.77;;
982;SDS011;480;48.124;11.578;2023-02-28T08:54:15;10.67;;;8.43;;
982;SDS011;480;48.124;11.578;2023-02-28T08:56:44;4.70;;;4.27;;
982;SDS011;480;48.124;11.578;2023-02-28T08:59:14;10.27;;;6.33;;
982;SDS011;480;48.124;11.578;2023-02-28T09:01:42;11.07;;;9.00;;
982;SDS011;480;48.124;11.578;2023-02-28T09:04:10;7.33;;;5.97;;
982;SDS011;480;48.124;11.578;2023-02-28T09:06:37;8.53;;;7.70;;
982;SDS011;480;48.124;11.578;2023-02-28T09:09:06;9.33;;;8.00;;
982;SDS011;480;48.124;11.578;2023-02-28T09:11:34;12.77;;;8.60;;
982;SDS011;480;48.124;11.578;2023-02-28T09:14:01;13.53;;;10.40;;
982;SDS011;480;48.124;11.578;2023-02-28T09:16:30;12.10;;;8.80;;
982;SDS011;480;48.124;11.578;2023-02-28T09:18:58;11.40;;;9.60;;
982;SDS011;480;48.124;11.578;2023-02-28T09:21:25;13.80;;;10.90;;
982;SDS011;480;48.124;11.578;2023-02-28T09:23:52;9.20;;;8.40;;
982;SDS011;480;48.124;11.578;2023-02-28T09:26:22;14.93;;;10.03;;
982;SDS011;480;48.124;11.578;2023-02-28T09:28:51;6.17;;;5.00;;
982;SDS011;480;48.124;11.578;2023-02-28T09:31:21;12.23;;;8.50;;
982;SDS011;480;48.124;11.578;2023-02-28T09:33:50;14.10;;;7.30;;
982;SDS011;480;48.124;11.578;2023-02-28T09:36:18;17.33;;;9.80;;
982;SDS011;480;48.124;11.578;2023-02-28T09:38:46;11.60;;;8.40;;
982;SDS011;480;48.124;11.578;2023-02-28T09:41:14;10.50;;;7.83;;
982;SDS011;480;48.124;11.578;2023-02-28T09:43:46;11.83;;;7.30;;
982;SDS011;480;48.124;11.578;2023-02-28T09:46:21;11.23;;;8.90;;
982;SDS011;480;48.124;11.578;2023-02-28T09:48:54;10.30;;;6.40;;
982;SDS011;480;48.124;11.578;2023-02-28T09:51:27;8.00;;;6.70;;
982;SDS011;480;48.124;11.578;2023-02-28T09:54:08;14.20;;;12.10;;
982;SDS011;480;48.124;11.578;2023-02-28T09:56:42;11.60;;;9.63;;
982;SDS011;480;48.124;11.578;2023-02-28T09:59:13;8.57;;;6.70;;
982;SDS011;480;48.124;11.578;2023-02-28T10:01:49;10.10;;;8.20;;
982;SDS011;480;48.124;11.578;2023-02-28T10:04:30;10.20;;;9.10;;
982;SDS011;480;48.124;11.578;2023-02-28T10:07:15;19.97;;;12.20;;
982;SDS011;480;48.124;11.578;2023-02-28T10:09:51;17.33;;;12.93;;
982;SDS011;480;48.124;11.578;2023-02-28T10:12:21;13.90;;;10.93;;
982;SDS011;480;48.124;11.578;2023-02-28T10:14:51;11.70;;;10.53;;
982;SDS011;480;48.124;11.578;2023-02-28T10:17:20;8.77;;;6.47;;
982;SDS011;480;48.124;11.578;2023-02-28T10:19:54;10.67;;;7.47;;
982;SDS011;480;48.124;11.578;2023-02-28T10:22:27;8.60;;;6.43;;
982;SDS011;480;48.124;11.578;2023-02-28T10:24:58;12.20;;;9.63;;
982;SDS011;480;48.124;11.578;2023-02-28T10:27:29;9.30;;;8.00;;
982;SDS011;480;48.124;11.578;2023-02-28T10:30:00;9.67;;;7.30;;
982;SDS011;480;48.124;11.578;2023-02-28T10:32:29;10.10;;;9.03;;
982;SDS011;480;48.124;11.578;2023-02-28T10:35:00;14.40;;;9.00;;
982;SDS011;480;48.124;11.578;2023-02-28T10:37:33;16.20;;;8.17;;
982;SDS011;480;48.124;11.578;2023-02-28T10:40:04;11.60;;;7.77;;
982;SDS011;480;48.124;11.578;2023-02-28T10:42:33;11.40;;;9.50;;
982;SDS011;480;48.124;11.578;2023-02-28T10:45:11;13.60;;;10.20;;
982;SDS011;480;48.124;11.578;2023-02-28T10:47:42;8.73;;;7.83;;
982;SDS011;480;48.124;11.578;2023-02-28T10:50:29;14.23;;;10.60;;
982;SDS011;480;48.124;11.578;2023-02-28T10:55:57;10.63;;;9.63;;
982;SDS011;480;48.124;11.578;2023-02-28T10:58:26;9.23;;;6.30;;
982;SDS011;480;48.124;11.578;2023-02-28T11:00:56;15.20;;;10.63;;
982;SDS011;480;48.124;11.578;2023-02-28T11:03:28;9.77;;;7.90;;
982;SDS011;480;48.124;11.578;2023-02-28T11:05:58;10.67;;;9.00;;
982;SDS011;480;48.124;11.578;2023-02-28T11:08:30;7.23;;;5.03;;
982;SDS011;480;48.124;11.578;2023-02-28T11:10:58;11.40;;;8.93;;
982;SDS011;480;48.124;11.578;2023-02-28T11:13:32;12.57;;;8.27;;
982;SDS011;480;48.124;11.578;2023-02-28T11:16:04;11.37;;;8.73;;
982;SDS011;480;48.124;11.578;2023-02-28T11:18:36;13.03;;;10.70;;
982;SDS011;480;48.124;11.578;2023-02-28T11:21:07;7.50;;;5.60;;
982;SDS011;480;48.124;11.578;2023-02-28T11:23:37;10.00;;;9.00;;
982;SDS011;480;48.124;11.578;2023-02-28T11:26:08;10.43;;;8.63;;
982;SDS011;480;48.124;11.578;2023-02-28T11:28:37;11.00;;;9.87;;
982;SDS011;480;48.124;11.578;2023-02-28T11:31:14;7.80;;;7.03;;
982;SDS011;480;48.124;11.578;2023-02-28T11:33:45;7.77;;;5.23;;
982;SDS011;480;48.124;11.578;2023-02-28T11:36:16;12.43;;;11.23;;
982;SDS011;480;48.124;11.578;2023-02-28T11:38:50;12.57;;;10.80;;
982;SDS011;480;48.124;11.578;2023-02-28T11:41:24;11.67;;;9.20;;
982;SDS011;480;48.124;11.578;2023-02-28T11:44:16;14.20;;;10.23;;
982;SDS011;480;48.124;11.578;2023-02-28T11:46:51;7.80;;;6.97;;
982;SDS011;480;48.124;11.578;2023-02-28T11:49:25;13.23;;;9.33;;
982;SDS011;480;48.124;11.578;2023-02-28T11:52:00;9.70;;;6.50;;
982;SDS011;480;48.124;11.578;2023-02-28T11:54:35;9.83;;;8.93;;
982;SDS011;480;48.124;11.578;2023-02-28T11:57:25;14.47;;;10.23;;
982;SDS011;480;48.124;11.578;2023-02-28T12:00:19;9.93;;;8.37;;
982;SDS011;480;48.124;11.578;2023-02-28T12:03:03;12.40;;;8.63;;
982;SDS011;480;48.124;11.578;2023-02-28T12:05:39;10.07;;;7.93;;
982;SDS011;480;48.124;11.578;2023-02-28T12:08:15;13.37;;;7.27;;
982;SDS011;480;48.124;11.578;2023-02-28T12:10:56;9.33;;;8.43;;
982;SDS011;480;48.124;11.578;2023-02-28T12:13:33;8.07;;;7.10;;
982;SDS011;480;48.124;11.578;2023-02-28T12:19:05;7.37;;;4.87;;
982;SDS011;480;48.124;11.578;2023-02-28T12:21:47;11.10;;;10.00;;
982;SDS011;480;48.124;11.578;2023-02-28T12:24:47;8.90;;;7.87;;
982;SDS011;480;48.124;11.578;2023-02-28T12:27:22;11.90;;;8.93;;
982;SDS011;480;48.124;11.578;2023-02-28T12:29:54;9.70;;;8.70;;
982;SDS011;480;48.124;11.578;2023-02-28T12:32:27;12.40;;;9.50;;
982;SDS011;480;48.124;11.578;2023-02-28T12:35:00;14.50;;;8.10;;
982;SDS011;480;48.124;11.578;2023-02-28T12:37:31;9.83;;;8.70;;
982;SDS011;480;48.124;11.578;2023-02-28T12:40:04;9.33;;;6.30;;
982;SDS011;480;48.124;11.578;2023-02-28T12:42:38;13.73;;;8.87;;
982;SDS011;480;48.124;11.578;2023-02-28T12:45:08;8.70;;;6.03;;
982;SDS011;480;48.124;11.578;2023-02-28T12:47:40;9.37;;;7.07;;
982;SDS011;480;48.124;11.578;2023-02-28T12:50:12;9.40;;;7.80;;
982;SDS011;480;48.124;11.578;2023-02-28T12:52:41;8.07;;;7.20;;
982;SDS011;480;48.124;11.578;2023-02-28T12:55:21;11.87;;;7.00;;
982;SDS011;480;48.124;11.578;2023-02-28T12:57:58;8.30;;;7.50;;
982;SDS011;480;48.124;11.578;2023-02-28T13:00:35;8.97;;;8.10;;
982;SDS011;480;48.124;11.578;2023-02-28T13:06:31;11.73;;;8.80;;
982;SDS011;480;48.124;11.578;2023-02-28T13:09:11;8.57;;;7.63;;
982;SDS011;480;48.124;11.578;2023-02-28T13:11:43;10.00;;;8.00;;
982;SDS011;480;48.124;11.578;2023-02-28T13:14:22;10.50;;;8.27;;
982;SDS011;480;48.124;11.578;2023-02-28T13:17:02;7.17;;;6.47;;
982;SDS011;480;48.124;11.578;2023-02-28T13:19:37;7.93;;;7.23;;
982;SDS011;480;48.124;11.578;2023-02-28T13:22:17;13.00;;;10.27;;
982;SDS011;480;48.124;11.578;2023-02-28T13:24:47;9.33;;;8.53;;
982;SDS011;480;48.124;11.578;2023-02-28T13:30:49;10.23;;;8.23;;
982;SDS011;480;48.124;11.578;2023-02-28T13:33:23;8.00;;;7.20;;
982;SDS011;480;48.124;11.578;2023-02-28T13:38:55;11.07;;;10.00;;
982;SDS011;480;48.124;11.578;2023-02-28T13:41:44;12.17;;;11.00;;
982;SDS011;480;48.124;11.578;2023-02-28T13:44:13;8.67;;;7.80;;
982;SDS011;480;48.124;11.578;2023-02-28T13:49:47;9.70;;;8.20;;
982;SDS011;480;48.124;11.578;2023-02-28T13:52:17;11.30;;;8.20;;
982;SDS011;480;48.124;11.578;2023-02-28T13:54:52;11.03;;;8.03;;
982;SDS011;480;48.124;11.578;2023-02-28T13:57:43;12.27;;;9.30;;
982;SDS011;480;48.124;11.578;2023-02-28T14:00:26;11.63;;;9.83;;
982;SDS011;480;48.124;11.578;2023-02-28T14:03:10;10.30;;;8.77;;
982;SDS011;480;48.124;11.578;2023-02-28T14:08:36;7.80;;;7.10;;
982;SDS011;480;48.124;11.578;2023-02-28T14:11:23;10.83;;;7.30;;
982;SDS011;480;48.124;11.578;2023-02-28T14:13:53;10.80;;;7.97;;
982;SDS011;480;48.124;11.578;2023-02-28T14:16:20;7.10;;;6.50;;
982;SDS011;480;48.124;11.578;2023-02-28T14:18:51;13.50;;;7.70;;
982;SDS011;480;48.124;11.578;2023-02-28T14:21:24;11.70;;;9.10;;
982;SDS011;480;48.124;11.578;2023-02-28T14:27:05;9.53;;;7.87;;
982;SDS011;480;48.124;11.578;2023-02-28T14:32:43;12.10;;;8.40;;
982;SDS011;480;48.124;11.578;2023-02-28T14:35:20;7.83;;;7.03;;
982;SDS011;480;48.124;11.578;2023-02-28T14:37:55;9.00;;;7.13;;
982;SDS011;480;48.124;11.578;2023-02-28T14:40:25;6.50;;;5.27;;
982;SDS011;480;48.124;11.578;2023-02-28T14:42:58;8.20;;;6.80;;
982;SDS011;480;48.124;11.578;2023-02-28T14:45:27;5.97;;;5.37;;
982;SDS011;480;48.124;11.578;2023-02-28T14:47:57;12.90;;;7.80;;
982;SDS011;480;48.124;11.578;2023-02-28T14:50:27;9.53;;;8.63;;
982;SDS011;480;48.124;11.578;2023-02-28T14:52:57;9.83;;;7.63;;
982;SDS011;480;48.124;11.578;2023-02-28T14:55:25;8.40;;;7.30;;
982;SDS011;480;48.124;11.578;2023-02-28T14:57:57;11.70;;;9.87;;
982;SDS011;480;48.124;11.578;2023-02-28T15:00:28;9.27;;;7.40;;
982;SDS011;480;48.124;11.578;2023-02-28T15:02:59;9.63;;;7.27;;
982;SDS011;480;48.124;11.578;2023-02-28T15:05:38;8.00;;;6.33;;
982;SDS011;480;48.124;11.578;2023-02-28T15:08:11;7.47;;;6.57;;
982;SDS011;480;48.124;11.578;2023-02-28T15:10:39;9.70;;;6.80;;
982;SDS011;480;48.124;11.578;2023-02-28T15:13:12;12.73;;;8.13;;
982;SDS011;480;48.124;11.578;2023-02-28T15:15:43;7.00;;;6.37;;
982;SDS011;480;48.124;11.578;2023-02-28T15:18:20;10.77;;;7.57;;
982;SDS011;480;48.124;11.578;2023-02-28T15:20:54;9.67;;;7.23;;
982;SDS011;480;48.124;11.578;2023-02-28T15:23:23;12.10;;;8.47;;
982;SDS011;480;48.124;11.578;2023-02-28T15:25:52;10.90;;;9.30;;
982;SDS011;480;48.124;11.578;2023-02-28T15:28:22;8.97;;;8.10;;
982;SDS011;480;48.124;11.578;2023-02-28T15:30:55;11.90;;;10.10;;
982;SDS011;480;48.124;11.578;2023-02-28T15:33:24;8.97;;;7.37;;
982;SDS011;480;48.124;11.578;2023-02-28T15:36:05;10.00;;;6.40;;
982;SDS011;480;48.124;11.578;2023-02-28T15:38:37;12.43;;;9.43;;
982;SDS011;480;48.124;11.578;2023-02-28T15:41:04;6.67;;;5.97;;
982;SDS011;480;48.124;11.578;2023-02-28T15:43:35;11.13;;;8.27;;
982;SDS011;480;48.124;11.578;2023-02-28T15:46:04;9.20;;;6.87;;
982;SDS011;480;48.124;11.578;2023-02-28T15:48:35;10.43;;;8.70;;
982;SDS011;480;48.124;11.578;2023-02-28T15:51:06;8.13;;;7.30;;
982;SDS011;480;48.124;11.578;2023-02-28T15:53:36;8.50;;;7.40;;
982;SDS011;480;48.124;11.578;2023-02-28T15:56:06;8.17;;;7.00;;
982;SDS011;480;48.124;11.578;2023-02-28T15:58:47;8.63;;;7.60;;
982;SDS011;480;48.124;11.578;2023-02-28T16:01:19;8.63;;;6.93;;
982;SDS011;480;48.124;11.578;2023-02-28T16:03:50;8.83;;;5.50;;
982;SDS011;480;48.124;11.578;2023-02-28T16:06:22;8.70;;;6.83;;
982;SDS011;480;48.124;11.578;2023-02-28T16:09:03;6.97;;;6.30;;
982;SDS011;480;48.124;11.578;2023-02-28T16:11:33;10.03;;;7.10;;
982;SDS011;480;48.124;11.578;2023-02-28T16:14:05;7.67;;;6.90;;
982;SDS011;480;48.124;11.578;2023-02-28T16:16:32;8.87;;;8.03;;
982;SDS011;480;48.124;11.578;2023-02-28T16:19:02;8.17;;;6.37;;
982;SDS011;480;48.124;11.578;2023-02-28T16:21:29;10.97;;;7.97;;
982;SDS011;480;48.124;11.578;2023-02-28T16:23:56;9.80;;;7.63;;
982;SDS011;480;48.124;11.578;2023-02-28T16:26:23;10.80;;;6.80;;
982;SDS011;480;48.124;11.578;2023-02-28T16:28:56;8.63;;;6.70;;
982;SDS011;480;48.124;11.578;2023-02-28T16:31:25;9.83;;;7.50;;
982;SDS011;480;48.124;11.578;2023-02-28T16:33:52;8.63;;;6.10;;
982;SDS011;480;48.124;11.578;2023-02-28T16:36:21;8.47;;;7.20;;
982;SDS011;480;48.124;11.578;2023-02-28T16:38:50;10.67;;;6.90;;
982;SDS011;480;48.124;11.578;2023-02-28T16:41:18;10.53;;;6.50;;
982;SDS011;480;48.124;11.578;2023-02-28T16:43:47;8.00;;;6.70;;
982;SDS011;480;48.124;11.578;2023-02-28T16:46:16;8.40;;;6.17;;